createdAt,value
2024-03-13T00:01:15.245Z,17.30
2024-03-13T00:03:52.976Z,14.30
2024-03-13T00:06:26.539Z,22.60
2024-03-13T00:09:00.714Z,22.60
2024-03-13T00:11:34.598Z,16.60
2024-03-13T00:14:08.272Z,17.10
2024-03-13T00:16:42.178Z,17.60
2024-03-13T00:19:15.763Z,16.20
2024-03-13T00:21:49.272Z,20.20
2024-03-13T00:24:22.704Z,20.10
2024-03-13T00:26:59.202Z,19.90
2024-03-13T00:29:32.933Z,17.30
2024-03-13T00:32:06.985Z,18.70
2024-03-13T00:34:41.038Z,26.10
2024-03-13T00:37:15.525Z,20.70
2024-03-13T00:39:49.125Z,20.40
2024-03-13T00:42:22.971Z,20.40
2024-03-13T00:44:56.755Z,18.30
2024-03-13T00:47:31.488Z,22.90
2024-03-13T00:50:05.935Z,22.20
2024-03-13T00:52:40.090Z,21.70
2024-03-13T00:55:13.980Z,20.70
2024-03-13T00:57:48.297Z,22.20
2024-03-13T01:00:27.706Z,20.70
2024-03-13T01:03:01.896Z,26.00
2024-03-13T01:05:35.830Z,25.10
2024-03-13T01:08:10.825Z,24.70
2024-03-13T01:10:44.820Z,23.90
2024-03-13T01:13:20.411Z,18.40
2024-03-13T01:15:54.214Z,25.40
2024-03-13T01:18:28.434Z,17.20
2024-03-13T01:21:02.472Z,16.00
2024-03-13T01:23:36.772Z,22.10
2024-03-13T01:26:10.378Z,21.30
2024-03-13T01:28:45.422Z,17.20
2024-03-13T01:31:20.831Z,17.00
2024-03-13T01:33:57.786Z,17.50
2024-03-13T01:36:45.123Z,18.10
2024-03-13T01:39:19.356Z,17.70
2024-03-13T01:42:10.093Z,18.20
2024-03-13T01:45:27.818Z,17.40
2024-03-13T01:48:19.103Z,15.10
2024-03-13T01:51:10.664Z,20.40
2024-03-13T01:54:02.076Z,20.00
2024-03-13T01:56:35.713Z,17.60
2024-03-13T01:59:22.288Z,20.50
2024-03-13T02:02:14.029Z,24.00
2024-03-13T02:04:49.946Z,21.20
2024-03-13T02:07:24.337Z,27.60
2024-03-13T02:10:00.114Z,17.60
2024-03-13T02:12:33.932Z,17.40
2024-03-13T02:15:08.698Z,17.70
2024-03-13T02:17:43.450Z,22.50
2024-03-13T02:20:17.071Z,19.50
2024-03-13T02:22:51.896Z,19.60
2024-03-13T02:25:22.756Z,18.60
2024-03-13T02:27:54.026Z,26.00
2024-03-13T02:30:24.436Z,22.20
2024-03-13T02:32:55.214Z,22.00
2024-03-13T02:35:25.746Z,20.10
2024-03-13T02:37:56.700Z,18.30
2024-03-13T02:40:27.016Z,23.60
2024-03-13T02:42:57.602Z,27.40
2024-03-13T02:45:28.923Z,19.80
2024-03-13T02:47:59.462Z,24.70
2024-03-13T02:50:30.559Z,24.60
2024-03-13T02:53:01.157Z,23.90
2024-03-13T02:55:31.560Z,22.70
2024-03-13T02:58:04.059Z,29.10
2024-03-13T03:00:34.700Z,34.20
2024-03-13T03:03:05.116Z,27.20
2024-03-13T03:05:37.089Z,23.90
2024-03-13T03:08:08.605Z,20.20
2024-03-13T03:10:39.724Z,27.60
2024-03-13T03:13:12.180Z,23.80
2024-03-13T03:15:44.604Z,24.00
2024-03-13T03:18:15.000Z,24.90
2024-03-13T03:20:47.240Z,27.20
2024-03-13T03:23:18.509Z,31.50
2024-03-13T03:25:50.049Z,32.50
2024-03-13T03:28:20.993Z,25.90
2024-03-13T03:30:53.209Z,22.50
2024-03-13T03:33:24.749Z,26.50
2024-03-13T03:35:55.058Z,21.00
2024-03-13T03:38:27.525Z,22.80
2024-03-13T03:40:57.973Z,18.20
2024-03-13T03:43:28.729Z,23.10
2024-03-13T03:45:59.376Z,20.90
2024-03-13T03:48:29.931Z,22.60
2024-03-13T03:51:00.807Z,29.00
2024-03-13T03:53:31.232Z,24.60
2024-03-13T03:56:02.521Z,29.40
2024-03-13T03:58:32.999Z,24.60
2024-03-13T04:01:03.704Z,24.80
2024-03-13T04:03:34.451Z,20.80
2024-03-13T04:06:06.381Z,23.60
2024-03-13T04:08:37.357Z,20.60
2024-03-13T04:11:07.974Z,23.10
2024-03-13T04:13:38.712Z,19.70
2024-03-13T04:16:11.901Z,22.50
2024-03-13T04:18:44.872Z,24.40
2024-03-13T04:21:15.281Z,29.20
2024-03-13T04:23:51.119Z,24.70
2024-03-13T04:26:21.460Z,25.10
2024-03-13T04:28:52.741Z,24.80
2024-03-13T04:31:23.730Z,30.00
2024-03-13T04:33:55.673Z,29.40
2024-03-13T04:36:26.373Z,23.80
2024-03-13T04:38:56.988Z,23.70
2024-03-13T04:41:27.795Z,27.50
2024-03-13T04:43:58.226Z,26.50
2024-03-13T04:46:28.625Z,24.50
2024-03-13T04:48:59.081Z,22.60
2024-03-13T04:51:29.711Z,23.60
2024-03-13T04:54:00.220Z,21.50
2024-03-13T04:56:30.696Z,19.10
2024-03-13T04:59:01.222Z,21.50
2024-03-13T05:01:32.303Z,25.90
2024-03-13T05:04:03.092Z,22.90
2024-03-13T05:06:33.936Z,18.50
2024-03-13T05:09:05.208Z,19.00
2024-03-13T05:11:35.863Z,20.30
2024-03-13T05:14:07.720Z,21.40
2024-03-13T05:16:41.955Z,20.50
2024-03-13T05:19:12.390Z,22.30
2024-03-13T05:21:42.738Z,18.30
2024-03-13T05:24:15.540Z,22.00
2024-03-13T05:26:45.935Z,22.20
2024-03-13T05:29:16.437Z,19.50
2024-03-13T05:31:48.192Z,19.80
2024-03-13T05:34:18.739Z,18.10
2024-03-13T05:36:49.307Z,16.50
2024-03-13T05:39:24.147Z,24.30
2024-03-13T05:41:54.717Z,17.00
2024-03-13T05:44:25.214Z,18.40
2024-03-13T05:46:56.028Z,18.80
2024-03-13T05:49:26.563Z,23.00
2024-03-13T05:51:58.491Z,25.50
2024-03-13T05:54:29.919Z,20.20
2024-03-13T05:57:00.363Z,24.00
2024-03-13T05:59:31.516Z,27.00
2024-03-13T06:02:02.242Z,23.40
2024-03-13T06:04:35.839Z,19.20
2024-03-13T06:07:08.772Z,23.80
2024-03-13T06:09:39.414Z,23.30
2024-03-13T06:12:09.954Z,29.70
2024-03-13T06:14:40.628Z,22.30
2024-03-13T06:17:10.920Z,26.40
2024-03-13T06:19:41.354Z,21.30
2024-03-13T06:22:11.821Z,27.60
2024-03-13T06:24:42.308Z,18.20
2024-03-13T06:27:17.101Z,19.90
2024-03-13T06:30:01.014Z,18.30
2024-03-13T06:32:31.892Z,20.40
2024-03-13T06:35:04.070Z,23.00
2024-03-13T06:37:35.294Z,17.30
2024-03-13T06:40:06.966Z,15.50
2024-03-13T06:42:37.404Z,18.10
2024-03-13T06:45:08.482Z,15.70
2024-03-13T06:47:39.330Z,14.70
2024-03-13T06:50:10.752Z,19.20
2024-03-13T06:52:41.513Z,16.10
2024-03-13T06:55:12.114Z,16.80
2024-03-13T06:57:42.496Z,15.00
2024-03-13T07:00:13.280Z,16.70
2024-03-13T07:02:43.632Z,15.50
2024-03-13T07:05:16.499Z,14.30
2024-03-13T07:07:47.065Z,16.30
2024-03-13T07:10:17.608Z,15.60
2024-03-13T07:12:48.100Z,15.00
2024-03-13T07:15:18.877Z,11.20
2024-03-13T07:17:49.391Z,13.40
2024-03-13T07:20:19.744Z,12.70
2024-03-13T07:22:50.182Z,13.80
2024-03-13T07:25:21.777Z,13.60
2024-03-13T07:27:52.842Z,19.30
2024-03-13T07:30:25.893Z,13.40
2024-03-13T07:32:56.510Z,13.00
2024-03-13T07:35:27.730Z,11.60
2024-03-13T07:37:59.709Z,11.60
2024-03-13T07:40:33.602Z,10.80
2024-03-13T07:43:04.437Z,13.60
2024-03-13T07:45:35.151Z,13.30
2024-03-13T07:48:09.407Z,12.20
2024-03-13T07:50:41.083Z,22.70
2024-03-13T07:53:11.538Z,12.60
2024-03-13T07:55:42.017Z,16.20
2024-03-13T07:58:13.525Z,16.20
2024-03-13T08:00:45.053Z,10.70
2024-03-13T08:03:15.702Z,12.20
2024-03-13T08:05:46.720Z,12.50
2024-03-13T09:07:18.816Z,9.60
2024-03-13T09:09:49.241Z,13.40
2024-03-13T09:12:19.815Z,14.80
2024-03-13T09:14:50.837Z,12.10
2024-03-13T09:17:21.374Z,12.50
2024-03-13T09:19:53.511Z,13.70
2024-03-13T09:22:23.945Z,17.70
2024-03-13T09:24:55.485Z,13.00
2024-03-13T09:27:25.899Z,13.30
2024-03-13T09:29:56.675Z,21.30
2024-03-13T09:32:27.240Z,11.60
2024-03-13T09:34:57.743Z,12.80
2024-03-13T09:37:28.733Z,11.50
2024-03-13T09:39:59.554Z,15.00
2024-03-13T09:42:30.285Z,12.90
2024-03-13T09:45:00.859Z,10.30
2024-03-13T09:47:31.473Z,12.70
2024-03-13T09:50:04.362Z,12.30
2024-03-13T09:52:34.776Z,13.50
2024-03-13T09:55:05.800Z,15.50
2024-03-13T09:57:36.440Z,17.00
2024-03-13T10:00:09.689Z,19.00
2024-03-13T10:02:41.447Z,17.00
2024-03-13T10:05:12.932Z,16.20
2024-03-13T10:07:44.103Z,18.80
2024-03-13T10:10:19.659Z,18.00
2024-03-13T10:12:50.146Z,17.10
2024-03-13T10:15:20.908Z,18.30
2024-03-13T10:17:52.502Z,20.30
2024-03-13T10:20:24.059Z,20.20
2024-03-13T10:22:55.521Z,18.80
2024-03-13T10:25:26.414Z,27.90
2024-03-13T10:27:56.905Z,21.40
2024-03-13T10:30:27.981Z,18.20
2024-03-13T10:32:58.615Z,21.60
2024-03-13T10:35:29.633Z,20.50
2024-03-13T10:38:00.070Z,20.10
2024-03-13T10:40:32.144Z,23.50
2024-03-13T10:43:02.781Z,17.90
2024-03-13T10:45:33.388Z,16.90
2024-03-13T10:48:05.061Z,20.70
2024-03-13T10:50:35.615Z,17.40
2024-03-13T10:53:07.253Z,23.20
2024-03-13T10:55:39.044Z,19.70
2024-03-13T10:58:10.712Z,15.80
2024-03-13T11:00:41.590Z,20.00
2024-03-13T11:03:14.028Z,16.40
2024-03-13T11:05:45.190Z,18.10
2024-03-13T11:08:17.400Z,17.50
2024-03-13T11:11:01.902Z,22.70
2024-03-13T11:13:41.285Z,18.40
2024-03-13T11:16:12.303Z,18.00
2024-03-13T11:18:44.123Z,16.30
2024-03-13T11:21:14.864Z,16.80
2024-03-13T11:23:46.392Z,18.40
2024-03-13T11:26:17.050Z,19.70
2024-03-13T11:28:48.369Z,16.80
2024-03-13T11:31:19.165Z,16.80
2024-03-13T11:33:49.641Z,23.70
2024-03-13T11:36:20.353Z,17.70
2024-03-13T11:38:51.064Z,24.40
2024-03-13T11:41:22.317Z,23.70
2024-03-13T11:43:56.735Z,19.00
2024-03-13T11:46:35.415Z,20.70
2024-03-13T11:49:09.449Z,19.10
2024-03-13T11:51:41.760Z,17.80
2024-03-13T11:54:15.409Z,15.80
2024-03-13T11:56:45.846Z,22.10
2024-03-13T11:59:18.413Z,20.70
2024-03-13T12:01:49.551Z,17.80
2024-03-13T12:04:21.217Z,18.00
2024-03-13T12:06:51.757Z,16.50
2024-03-13T12:09:24.508Z,18.50
2024-03-13T12:11:55.830Z,20.10
2024-03-13T12:14:26.708Z,15.70
2024-03-13T12:16:57.953Z,17.00
2024-03-13T12:19:30.252Z,17.60
2024-03-13T12:22:00.665Z,19.20
2024-03-13T12:24:31.675Z,21.30
2024-03-13T12:27:02.191Z,19.90
2024-03-13T12:29:36.079Z,16.70
2024-03-13T12:32:07.264Z,21.80
2024-03-13T12:34:38.841Z,20.50
2024-03-13T12:37:11.226Z,23.20
2024-03-13T12:39:42.157Z,17.80
2024-03-13T12:42:14.500Z,16.70
2024-03-13T12:44:44.966Z,20.90
2024-03-13T12:47:15.551Z,16.60
2024-03-13T12:49:46.860Z,16.60
2024-03-13T12:52:19.300Z,17.30
2024-03-13T12:54:49.779Z,21.80
2024-03-13T12:57:20.300Z,24.80
2024-03-13T12:59:53.475Z,18.70
2024-03-13T13:02:24.642Z,19.80
2024-03-13T13:04:55.847Z,22.40
2024-03-13T13:07:26.486Z,19.20
2024-03-13T13:09:58.868Z,19.20
2024-03-13T13:12:29.650Z,22.30
2024-03-13T13:15:00.279Z,21.40
2024-03-13T13:17:30.748Z,20.70
2024-03-13T13:20:01.532Z,19.30
2024-03-13T13:22:32.403Z,16.60
2024-03-13T13:25:03.153Z,18.30
2024-03-13T13:27:33.704Z,19.00
2024-03-13T13:30:05.237Z,23.80
2024-03-13T13:32:36.975Z,19.50
2024-03-13T13:35:09.040Z,21.50
2024-03-13T13:37:40.535Z,19.50
2024-03-13T13:40:18.532Z,19.50
2024-03-13T13:42:51.089Z,24.90
2024-03-13T13:45:25.124Z,19.50
2024-03-13T13:47:56.558Z,17.70
2024-03-13T13:50:28.046Z,17.30
2024-03-13T13:52:59.078Z,18.60
2024-03-13T13:55:29.579Z,22.90
2024-03-13T13:58:00.343Z,19.10
2024-03-13T14:00:33.262Z,22.60
2024-03-13T14:03:03.937Z,17.30
2024-03-13T14:05:36.012Z,17.10
2024-03-13T14:08:08.294Z,19.10
2024-03-13T14:10:39.273Z,17.40
2024-03-13T14:13:10.488Z,17.40
2024-03-13T14:15:41.320Z,18.30
2024-03-13T14:18:15.773Z,17.90
2024-03-13T14:20:46.594Z,21.60
2024-03-13T14:23:17.172Z,20.10
2024-03-13T14:25:48.135Z,19.30
2024-03-13T14:28:21.616Z,19.30
2024-03-13T14:30:53.181Z,21.70
2024-03-13T14:33:24.196Z,20.30
2024-03-13T14:35:55.653Z,21.40
2024-03-13T14:38:27.299Z,18.60
2024-03-13T14:40:58.258Z,20.20
2024-03-13T14:43:28.770Z,23.50
2024-03-13T14:45:59.310Z,20.00
2024-03-13T14:48:30.130Z,21.00
2024-03-13T14:51:01.098Z,24.70
2024-03-13T14:53:32.250Z,19.80
2024-03-13T14:56:03.021Z,17.80
2024-03-13T14:58:33.729Z,20.70
2024-03-13T15:01:04.471Z,20.60
2024-03-13T15:03:39.852Z,19.10
2024-03-13T15:06:10.957Z,19.10
2024-03-13T15:08:41.757Z,23.30
2024-03-13T15:11:12.727Z,19.80
2024-03-13T15:13:47.713Z,19.30
2024-03-13T15:16:18.086Z,21.30
2024-03-13T15:18:49.816Z,20.70
2024-03-13T15:21:20.834Z,20.50
2024-03-13T15:23:51.468Z,19.10
2024-03-13T15:26:21.849Z,24.10
2024-03-13T15:28:52.258Z,18.30
2024-03-13T15:31:22.680Z,21.40
2024-03-13T15:33:53.466Z,23.30
2024-03-13T15:36:24.112Z,21.10
2024-03-13T15:38:54.634Z,22.10
2024-03-13T15:41:25.318Z,25.40
2024-03-13T15:43:56.234Z,17.60
2024-03-13T15:46:28.577Z,17.80
2024-03-13T15:48:59.666Z,16.70
2024-03-13T15:51:30.410Z,21.70
2024-03-13T15:54:01.500Z,19.80
2024-03-13T15:56:31.841Z,25.40
2024-03-13T15:59:02.370Z,16.50
2024-03-13T16:01:33.158Z,17.80
2024-03-13T16:04:03.615Z,20.50
2024-03-13T16:06:34.338Z,17.60
2024-03-13T16:09:05.317Z,19.50
2024-03-13T16:11:36.173Z,19.30
2024-03-13T16:14:07.437Z,19.30
2024-03-13T16:16:38.256Z,17.90
2024-03-13T16:19:08.898Z,17.60
2024-03-13T16:21:40.020Z,22.60
2024-03-13T16:24:13.327Z,18.40
2024-03-13T16:26:43.873Z,21.80
2024-03-13T16:29:14.684Z,16.80
2024-03-13T16:31:45.536Z,19.50
2024-03-13T16:34:16.117Z,20.30
2024-03-13T16:36:46.653Z,25.20
2024-03-13T16:39:19.041Z,21.00
2024-03-13T16:41:49.745Z,17.90
2024-03-13T16:44:20.376Z,18.90
2024-03-13T16:46:51.192Z,18.00
2024-03-13T16:49:21.824Z,17.80
2024-03-13T16:51:52.488Z,21.20
2024-03-13T16:54:23.603Z,21.90
2024-03-13T16:56:54.050Z,17.90
2024-03-13T16:59:24.536Z,21.90
2024-03-13T17:01:55.189Z,18.10
2024-03-13T17:04:25.825Z,16.70
2024-03-13T17:06:56.175Z,18.60
2024-03-13T17:09:28.145Z,21.40
2024-03-13T17:11:58.918Z,21.80
2024-03-13T17:14:29.782Z,17.80
2024-03-13T17:17:00.120Z,19.50
2024-03-13T17:19:31.787Z,19.40
2024-03-13T17:22:02.216Z,20.40
2024-03-13T17:24:33.398Z,16.90
2024-03-13T17:27:04.248Z,22.20
2024-03-13T17:29:34.768Z,15.60
2024-03-13T17:32:07.344Z,17.50
2024-03-13T17:34:37.790Z,17.30
2024-03-13T17:37:08.893Z,19.30
2024-03-13T17:39:39.435Z,19.70
2024-03-13T17:42:11.458Z,21.10
2024-03-13T17:44:42.225Z,17.20
2024-03-13T17:47:14.028Z,16.40
2024-03-13T17:49:45.472Z,17.30
2024-03-13T17:52:16.123Z,16.60
2024-03-13T17:54:46.677Z,14.90
2024-03-13T17:57:17.020Z,17.40
2024-03-13T17:59:49.242Z,19.10
2024-03-13T18:02:20.325Z,17.10
2024-03-13T18:04:52.205Z,17.10
2024-03-13T18:07:24.930Z,18.40
2024-03-13T18:09:56.628Z,23.00
2024-03-13T18:12:28.350Z,19.70
2024-03-13T18:14:59.719Z,18.60
2024-03-13T18:17:30.469Z,17.90
2024-03-13T18:20:01.632Z,21.30
2024-03-13T18:22:32.327Z,25.90
2024-03-13T18:25:02.811Z,23.30
2024-03-13T18:27:33.977Z,19.20
2024-03-13T18:30:10.549Z,23.50
2024-03-13T18:32:44.806Z,21.70
2024-03-13T18:35:17.878Z,22.10
2024-03-13T18:37:48.452Z,18.40
2024-03-13T18:40:21.153Z,26.20
2024-03-13T18:42:51.516Z,24.60
2024-03-13T18:45:22.265Z,24.20
2024-03-13T18:47:54.223Z,24.90
2024-03-13T18:50:25.842Z,22.20
2024-03-13T18:52:58.976Z,20.50
2024-03-13T18:55:29.779Z,25.40
2024-03-13T18:58:00.944Z,20.60
2024-03-13T19:00:32.508Z,24.90
2024-03-13T19:03:04.359Z,20.40
2024-03-13T19:05:36.928Z,19.20
2024-03-13T19:08:08.063Z,21.70
2024-03-13T19:10:38.945Z,19.60
2024-03-13T19:13:09.434Z,18.80
2024-03-13T19:15:40.838Z,19.40
2024-03-13T19:18:11.959Z,20.40
2024-03-13T19:20:44.345Z,20.40
2024-03-13T19:23:15.432Z,21.70
2024-03-13T19:25:45.809Z,19.70
2024-03-13T19:28:16.251Z,19.30
2024-03-13T19:30:47.251Z,17.70
2024-03-13T19:33:17.866Z,17.60
2024-03-13T19:35:51.036Z,18.50
2024-03-13T19:38:22.082Z,17.40
2024-03-13T19:40:52.606Z,18.00
2024-03-13T19:43:23.283Z,17.00
2024-03-13T19:45:54.520Z,17.90
2024-03-13T19:48:25.403Z,20.70
2024-03-13T19:50:56.306Z,17.60
2024-03-13T19:53:28.799Z,19.10
2024-03-13T19:55:59.881Z,19.00
2024-03-13T19:58:30.517Z,20.90
2024-03-13T20:01:01.659Z,21.00
2024-03-13T20:03:34.344Z,17.50
2024-03-13T20:06:04.908Z,18.60
2024-03-13T20:08:36.447Z,18.90
2024-03-13T20:11:07.651Z,18.90
2024-03-13T20:13:38.844Z,21.50
2024-03-13T20:16:09.769Z,19.40
2024-03-13T20:18:40.771Z,18.00
2024-03-13T20:21:11.838Z,18.70
2024-03-13T20:23:43.537Z,19.80
2024-03-13T20:26:14.016Z,18.80
2024-03-13T20:28:47.118Z,21.40
2024-03-13T20:31:18.039Z,20.50
2024-03-13T20:33:48.541Z,19.80
2024-03-13T20:36:20.754Z,23.70
2024-03-13T20:38:52.929Z,18.80
2024-03-13T20:41:23.574Z,21.30
2024-03-13T20:43:53.964Z,21.70
2024-03-13T20:46:24.495Z,19.60
2024-03-13T20:48:56.009Z,20.40
2024-03-13T20:51:26.802Z,19.90
2024-03-13T20:53:57.644Z,22.10
2024-03-13T20:56:28.714Z,22.90
2024-03-13T20:58:59.882Z,26.10
2024-03-13T21:01:31.028Z,25.90
2024-03-13T21:04:02.172Z,22.70
2024-03-13T21:06:33.739Z,20.50
2024-03-13T21:09:05.035Z,21.50
2024-03-13T21:11:35.677Z,21.50
2024-03-13T21:14:05.997Z,24.70
2024-03-13T21:16:36.541Z,22.00
2024-03-13T21:19:06.943Z,18.70
2024-03-13T21:21:37.580Z,20.40
2024-03-13T21:24:08.423Z,21.30
2024-03-13T21:26:41.888Z,22.70
2024-03-13T21:29:15.702Z,23.30
2024-03-13T21:31:46.719Z,21.70
2024-03-13T21:34:21.351Z,22.30
2024-03-13T21:36:58.577Z,21.90
2024-03-13T21:39:29.209Z,20.50
2024-03-13T21:41:59.795Z,23.50
2024-03-13T21:44:31.591Z,22.70
2024-03-13T21:47:02.079Z,22.10
2024-03-13T21:49:34.057Z,20.60
2024-03-13T21:52:05.107Z,21.10
2024-03-13T21:54:35.822Z,20.50
2024-03-13T21:57:07.833Z,20.50
2024-03-13T21:59:38.801Z,23.50
2024-03-13T22:02:09.307Z,19.40
2024-03-13T22:04:40.514Z,23.40
2024-03-13T22:07:11.295Z,23.30
2024-03-13T22:09:41.916Z,21.70
2024-03-13T22:12:12.530Z,23.10
2024-03-13T22:14:44.576Z,22.80
2024-03-13T22:17:15.838Z,21.70
2024-03-13T22:19:46.669Z,21.90
2024-03-13T22:22:17.091Z,21.50
2024-03-13T22:24:48.683Z,28.00
2024-03-13T22:27:19.169Z,22.20
2024-03-13T22:29:50.496Z,20.20
2024-03-13T22:32:21.224Z,22.10
2024-03-13T22:34:51.582Z,22.40
2024-03-13T22:37:22.236Z,26.50
2024-03-13T22:39:52.766Z,24.20
2024-03-13T22:42:23.979Z,22.20
2024-03-13T22:44:55.116Z,24.50
2024-03-13T22:47:28.409Z,23.30
2024-03-13T22:50:00.857Z,23.80
2024-03-13T22:52:31.415Z,23.10
2024-03-13T22:55:01.785Z,23.20
2024-03-13T22:57:32.599Z,20.10
2024-03-13T23:00:12.271Z,23.50
2024-03-13T23:02:44.665Z,23.30
2024-03-13T23:05:15.556Z,29.00
2024-03-13T23:07:52.584Z,24.60
2024-03-13T23:10:23.414Z,25.00
2024-03-13T23:12:54.553Z,21.70
2024-03-13T23:15:27.670Z,22.20
2024-03-13T23:17:59.317Z,22.20
2024-03-13T23:20:38.362Z,22.70
2024-03-13T23:23:09.397Z,33.50
2024-03-13T23:25:39.989Z,24.30
2024-03-13T23:28:10.758Z,22.10
2024-03-13T23:30:41.940Z,22.70
2024-03-13T23:33:13.309Z,24.80
2024-03-13T23:35:44.696Z,20.30
2024-03-13T23:38:15.943Z,19.70
2024-03-13T23:40:47.117Z,21.40
2024-03-13T23:43:18.074Z,24.20
2024-03-13T23:45:49.228Z,20.50
2024-03-13T23:48:21.101Z,22.60
2024-03-13T23:50:52.341Z,21.40
2024-03-13T23:53:22.718Z,22.10
2024-03-13T23:55:55.207Z,23.70
2024-03-13T23:58:26.303Z,19.70
